LFMV/AVN METAR and TAF weather

Enter ICAO airport designator
Station Type Date Time Source
LFMV METAR 2020/07/05 17:00 UTC NOAA

LFMV 051700Z AUTO 34015KT 310V010 CAVOK 33/15 Q1014 BECMG 34015G25KT


Station Type Date Time Source
LFMV Decoded METAR 2020/07/05 17:00 UTC NOAA

Station name not available
Jul 05, 2020 - 01:00 PM EDT / 2020.07.05 1700 UTC
Wind: from the NNW (340 degrees) at 17 MPH (15 KT) (direction variable):0
Visibility: greater than 7 mile(s):0
Temperature: 91 F (33 C)
Dew Point: 59 F (15 C)
Relative Humidity: 33%
Pressure (altimeter): 29.94 in. Hg (1014 hPa)
ob: LFMV 051700Z AUTO 34015KT 310V010 CAVOK 33/15 Q1014 BECMG 34015G25KT
cycle: 17

Station Type Date Time Source
LFMV TAF 2020/07/05 15:00 UTC NOAA

TAF LFMV 051400Z 0515/0615 34015G25KT CAVOK
TEMPO 0610/0615 34020G40KT

Example: see airport list